Back to Top

Language: 

My Weather Underground Personal Weather Station Historical Data with Graphs...

Delerius Weather Station Historical Data
Daily Summary for January 16, 2018 Units:  Metric    English   Both
« Previous Day
Next Day »
Daily Weekly Monthly Yearly Custom
  High: Low: Average:
Temperature: 4.2 °C 0.8 °C 2.6 °C
Dew Point: 2.3 °C -0.1 °C 1.1 °C
Humidity: 94 % 85 % 90 %
Wind Speed: 33.8 km/h 8 km/h 19.5 km/h
Wind Gust: 59.5 km/h - -
Wind:- - West
Pressure: 990.7 hPa 987.4 hPa -
Precipitation: 6.1 mm    
Historical Graphs
 
 
Tabular Data for January 16, 2018
Time Temperature Dew Point Pressure Wind Wind Speed Wind Gust Humidity Rainfall Rate (Hourly) solar Conditions
00:31 3.3 °C 1.9 °C 987.7 hPa West 12.9 km/h 22.5 km/h 91 % 0.51 mm 0 W/m2
00:37 3.2 °C 2 °C 987.7 hPa West 14.5 km/h 24.1 km/h 92 % 0.51 mm 0 W/m2
01:13 3.3 °C 2.1 °C 987.7 hPa WNW 14.5 km/h 22.5 km/h 92 % 0.51 mm 0 W/m2
01:31 3.3 °C 2.3 °C 987.7 hPa West 11.3 km/h 19.3 km/h 93 % 0.76 mm 0 W/m2
01:42 3.3 °C 2.3 °C 987.7 hPa West 20.9 km/h 35.4 km/h 93 % 1.02 mm 0 W/m2
01:47 3.2 °C 2 °C 988 hPa West 20.9 km/h 33.8 km/h 92 % 1.27 mm 0 W/m2
01:58 2.9 °C 1.7 °C 988 hPa West 20.9 km/h 33.8 km/h 92 % 1.02 mm 0 W/m2
02:07 2.6 °C 1.4 °C 988 hPa West 16.1 km/h 32.2 km/h 92 % 1.02 mm 0 W/m2
02:32 2.3 °C 1.4 °C 987.7 hPa West 11.3 km/h 19.3 km/h 94 % 1.27 mm 0 W/m2
02:40 2.4 °C 1.6 °C 987.7 hPa West 14.5 km/h 25.7 km/h 94 % 1.02 mm 0 W/m2
02:54 2.4 °C 1.4 °C 987.7 hPa West 20.9 km/h 35.4 km/h 93 % 0.51 mm 0 W/m2
03:02 2.6 °C 1.4 °C 987.4 hPa West 20.9 km/h 33.8 km/h 92 % 0.51 mm 0 W/m2
03:10 2.7 °C 1.4 °C 987.4 hPa West 16.1 km/h 24.1 km/h 91 % 0.51 mm 0 W/m2
03:30 2.8 °C 1.3 °C 987.4 hPa West 17.7 km/h 32.2 km/h 90 % 0 mm 0 W/m2
03:36 2.9 °C 1.4 °C 987.4 hPa West 22.5 km/h 37 km/h 90 % 0 mm 0 W/m2
03:51 3 °C 1.5 °C 987.4 hPa West 20.9 km/h 33.8 km/h 90 % 0 mm 0 W/m2
03:59 3.1 °C 1.6 °C 987.4 hPa West 20.9 km/h 37 km/h 90 % 0 mm 0 W/m2
04:07 3.1 °C 1.4 °C 987.4 hPa West 20.9 km/h 29 km/h 89 % 0 mm 0 W/m2
04:31 2.9 °C 1.3 °C 987.4 hPa West 19.3 km/h 25.7 km/h 89 % 0 mm 0 W/m2
04:47 3.1 °C 1.6 °C 987.7 hPa WNW 19.3 km/h 32.2 km/h 90 % 0 mm 0 W/m2
05:01 3.2 °C 1.7 °C 988 hPa West 20.9 km/h 32.2 km/h 90 % 0.25 mm 0 W/m2
05:07 3.2 °C 1.6 °C 988 hPa WNW 17.7 km/h 24.1 km/h 89 % 0.25 mm 0 W/m2
05:15 3.2 °C 1.6 °C 988 hPa West 24.1 km/h 43.5 km/h 89 % 0.25 mm 0 W/m2
05:27 3.1 °C 1.3 °C 988.4 hPa West 33.8 km/h 59.5 km/h 88 % 0.25 mm 0 W/m2
05:47 2.4 °C 1.1 °C 988.4 hPa West 12.9 km/h 25.7 km/h 91 % 0.51 mm 0 W/m2
06:28 3.1 °C 1.2 °C 988.4 hPa West 20.9 km/h 33.8 km/h 87 % 0.51 mm 0 W/m2
06:33 3.1 °C 1 °C 988.7 hPa West 19.3 km/h 33.8 km/h 86 % 0.25 mm 0 W/m2
06:39 3.1 °C 1 °C 988.7 hPa West 27.4 km/h 43.5 km/h 86 % 0.25 mm 0 W/m2
06:45 2.8 °C 0.8 °C 988.4 hPa WNW 22.5 km/h 40.2 km/h 87 % 0.25 mm 0 W/m2
06:53 2.6 °C 0.8 °C 988.7 hPa West 19.3 km/h 33.8 km/h 88 % 0.25 mm 0 W/m2
07:00 2.7 °C 0.9 °C 988.7 hPa WSW 20.9 km/h 32.2 km/h 88 % 0.25 mm 0 W/m2
07:05 2.6 °C 0.8 °C 988.7 hPa West 20.9 km/h 35.4 km/h 88 % 0.25 mm 0 W/m2
07:11 2.5 °C 0.9 °C 989.1 hPa West 17.7 km/h 29 km/h 89 % 0 mm 0 W/m2
07:27 2.6 °C 0.9 °C 989.1 hPa West 22.5 km/h 33.8 km/h 89 % 0 mm 0 W/m2
07:33 2.8 °C 1.2 °C 989.1 hPa West 24.1 km/h 38.6 km/h 89 % 0 mm 0 W/m2
07:48 2.8 °C 1.2 °C 988.7 hPa West 16.1 km/h 25.7 km/h 89 % 0 mm 0 W/m2
07:55 2.9 °C 1.1 °C 989.1 hPa West 19.3 km/h 30.6 km/h 88 % 0 mm 0 W/m2
08:02 3 °C 1.1 °C 989.4 hPa West 20.9 km/h 38.6 km/h 87 % 0 mm 0 W/m2
08:20 3.2 °C 1.1 °C 989.4 hPa West 19.3 km/h 29 km/h 86 % 0 mm 44 W/m2
08:47 3.3 °C 1.2 °C 989.7 hPa West 30.6 km/h 46.7 km/h 86 % 0 mm 11 W/m2
08:53 3.1 °C 1 °C 989.7 hPa West 17.7 km/h 29 km/h 86 % 0 mm 11 W/m2
09:04 2.9 °C 1.1 °C 989.7 hPa West 16.1 km/h 29 km/h 88 % 0 mm 23 W/m2
09:12 2.8 °C 1.2 °C 990.1 hPa West 19.3 km/h 33.8 km/h 89 % 0.25 mm 65 W/m2
09:19 2.9 °C 1.4 °C 990.1 hPa West 16.1 km/h 29 km/h 90 % 0.25 mm 53 W/m2
09:27 3 °C 1.4 °C 990.1 hPa WSW 14.5 km/h 25.7 km/h 89 % 0.25 mm 83 W/m2
09:47 3.4 °C 1.6 °C 990.4 hPa West 16.1 km/h 22.5 km/h 88 % 0.25 mm 37 W/m2
09:57 3.2 °C 1.6 °C 990.4 hPa WSW 17.7 km/h 29 km/h 89 % 0.25 mm 54 W/m2
10:10 2.9 °C 1.4 °C 990.4 hPa West 20.9 km/h 33.8 km/h 90 % 0 mm 21 W/m2
10:27 3.9 °C 2.1 °C 990.4 hPa West 27.4 km/h 37 km/h 88 % 0 mm 350 W/m2
10:33 4.2 °C 2.2 °C 990.7 hPa West 25.7 km/h 43.5 km/h 87 % 0 mm 19 W/m2
10:39 3.8 °C 1.7 °C 990.7 hPa West 29 km/h 46.7 km/h 86 % 0.25 mm 7 W/m2
10:58 2.5 °C 1 °C 990.4 hPa West 17.7 km/h 25.7 km/h 90 % 0.25 mm 84 W/m2
11:40 3.3 °C 1.8 °C 989.7 hPa West 24.1 km/h 40.2 km/h 90 % 0.51 mm 229 W/m2
11:50 3.6 °C 1.9 °C 989.7 hPa West 22.5 km/h 38.6 km/h 89 % 0.51 mm 274 W/m2
12:11 4.1 °C 1.9 °C 990.1 hPa West 22.5 km/h 33.8 km/h 86 % 0.51 mm 84 W/m2
12:23 3.5 °C 1.6 °C 990.4 hPa West 22.5 km/h 37 km/h 87 % 0.51 mm 9 W/m2
12:41 2.4 °C 0.9 °C 990.1 hPa West 14.5 km/h 29 km/h 90 % 0.51 mm 51 W/m2
12:46 2.4 °C 1.1 °C 990.1 hPa West 17.7 km/h 25.7 km/h 91 % 0.51 mm 35 W/m2
13:04 2.6 °C 1.3 °C 990.1 hPa WSW 17.7 km/h 29 km/h 91 % 0.51 mm 18 W/m2
13:10 2.7 °C 1.6 °C 989.7 hPa West 14.5 km/h 22.5 km/h 92 % 0.51 mm 236 W/m2
13:16 2.9 °C 1.7 °C 989.7 hPa West 12.9 km/h 19.3 km/h 92 % 0.51 mm 81 W/m2
13:49 3.1 °C 1.3 °C 989.7 hPa WSW 20.9 km/h 37 km/h 88 % 0.25 mm 18 W/m2
14:00 2.5 °C 1 °C 990.1 hPa West 24.1 km/h 41.8 km/h 90 % 0.25 mm 25 W/m2
14:10 2.3 °C 1 °C 989.7 hPa West 16.1 km/h 22.5 km/h 91 % 0.51 mm 21 W/m2
14:16 2.4 °C 1.2 °C 990.1 hPa WNW 16.1 km/h 24.1 km/h 92 % 0.51 mm 5 W/m2
14:29 2.2 °C 1.1 °C 990.1 hPa West 12.9 km/h 19.3 km/h 92 % 0.51 mm 21 W/m2
14:43 2 °C 0.8 °C 989.4 hPa WSW 16.1 km/h 25.7 km/h 92 % 0.51 mm 76 W/m2
14:53 2.1 °C 0.9 °C 989.1 hPa WSW 12.9 km/h 19.3 km/h 92 % 0.51 mm 16 W/m2
15:18 2.3 °C 1.3 °C 989.1 hPa West 12.9 km/h 17.7 km/h 93 % 0.25 mm 46 W/m2
15:26 2.5 °C 1.5 °C 989.1 hPa West 14.5 km/h 22.5 km/h 93 % 0.25 mm 23 W/m2
15:35 2.6 °C 1.4 °C 988.7 hPa WSW 17.7 km/h 25.7 km/h 92 % 0.25 mm 16 W/m2
15:41 2.7 °C 1.4 °C 988.7 hPa WSW 20.9 km/h 30.6 km/h 91 % 0.25 mm 7 W/m2
15:54 2.8 °C 1.3 °C 988.4 hPa WSW 16.1 km/h 24.1 km/h 90 % 0 mm 11 W/m2
16:03 2.9 °C 1.1 °C 988.4 hPa WSW 22.5 km/h 38.6 km/h 88 % 0.25 mm 12 W/m2
16:17 3.1 °C 1.2 °C 988.4 hPa West 19.3 km/h 35.4 km/h 87 % 0.25 mm 5 W/m2
16:32 3.1 °C 1 °C 988 hPa WSW 22.5 km/h 35.4 km/h 86 % 0.25 mm 0 W/m2
16:42 3.1 °C 0.8 °C 987.7 hPa WSW 30.6 km/h 43.5 km/h 85 % 0.25 mm 0 W/m2
17:07 3 °C 0.7 °C 988 hPa WSW 25.7 km/h 46.7 km/h 85 % 0 mm 0 W/m2
17:13 3.1 °C 0.8 °C 988 hPa WSW 25.7 km/h 38.6 km/h 85 % 0 mm 0 W/m2
17:20 2.9 °C 0.6 °C 987.7 hPa WSW 24.1 km/h 38.6 km/h 85 % 0 mm 0 W/m2
17:36 2.9 °C 0.6 °C 988 hPa WSW 24.1 km/h 41.8 km/h 85 % 0 mm 0 W/m2
17:41 2.8 °C 0.7 °C 988 hPa WSW 24.1 km/h 40.2 km/h 86 % 0 mm 0 W/m2
17:59 2.5 °C 0.7 °C 988 hPa WSW 27.4 km/h 41.8 km/h 88 % 0 mm 0 W/m2
18:08 2.3 °C 0.5 °C 988.4 hPa West 33.8 km/h 54.7 km/h 88 % 0.25 mm 0 W/m2
18:21 1.8 °C 0.5 °C 988 hPa WSW 25.7 km/h 41.8 km/h 91 % 0.25 mm 0 W/m2
18:33 1.8 °C 0.5 °C 987.7 hPa West 27.4 km/h 38.6 km/h 91 % 0.25 mm 0 W/m2
18:43 2.1 °C 0.6 °C 988.4 hPa West 25.7 km/h 40.2 km/h 90 % 0.25 mm 0 W/m2
18:51 1.8 °C 0.3 °C 988 hPa WSW 25.7 km/h 38.6 km/h 90 % 0.25 mm 0 W/m2
19:06 1.6 °C 0.4 °C 988.4 hPa West 25.7 km/h 38.6 km/h 92 % 0 mm 0 W/m2
19:12 1.6 °C 0.4 °C 988.4 hPa West 19.3 km/h 33.8 km/h 92 % 0.25 mm 0 W/m2
19:25 1.5 °C 0.3 °C 988.7 hPa West 14.5 km/h 22.5 km/h 92 % 0.25 mm 0 W/m2
19:34 1.2 °C 0.2 °C 988.7 hPa WSW 17.7 km/h 29 km/h 93 % 0.25 mm 0 W/m2
19:39 1.1 °C 0.1 °C 988.7 hPa West 12.9 km/h 20.9 km/h 93 % 0.25 mm 0 W/m2
19:46 1.1 °C 0.2 °C 988.7 hPa West 12.9 km/h 19.3 km/h 94 % 0.25 mm 0 W/m2
19:51 1.1 °C 0.2 °C 988.7 hPa West 16.1 km/h 24.1 km/h 94 % 0.51 mm 0 W/m2
20:03 1.3 °C 0.4 °C 988.4 hPa WSW 16.1 km/h 22.5 km/h 94 % 0.51 mm 0 W/m2
20:13 1.3 °C 0.4 °C 988.7 hPa West 16.1 km/h 25.7 km/h 94 % 0.51 mm 0 W/m2
20:31 0.9 °C 0.1 °C 988.4 hPa West 8 km/h 11.3 km/h 94 % 0.51 mm 0 W/m2
20:53 0.8 °C -0.1 °C 988.4 hPa West 11.3 km/h 17.7 km/h 94 % 0.25 mm 0 W/m2
21:05 0.9 °C 0.1 °C 988.4 hPa West 14.5 km/h 22.5 km/h 94 % 0.25 mm 0 W/m2
21:27 1.6 °C 0.4 °C 988.4 hPa West 16.1 km/h 32.2 km/h 92 % 0 mm 0 W/m2
21:45 1.8 °C 0.3 °C 988.7 hPa WSW 24.1 km/h 38.6 km/h 90 % 0 mm 0 W/m2
21:54 1.8 °C 0.3 °C 988.7 hPa WSW 24.1 km/h 37 km/h 90 % 0.25 mm 0 W/m2
22:00 1.7 °C 0.2 °C 988.7 hPa West 19.3 km/h 33.8 km/h 90 % 0.25 mm 0 W/m2
22:06 1.5 °C 0.2 °C 989.1 hPa WSW 16.1 km/h 25.7 km/h 91 % 0.25 mm 0 W/m2
22:24 1.2 °C 0.1 °C 989.1 hPa West 14.5 km/h 22.5 km/h 92 % 0.25 mm 0 W/m2
22:31 1.1 °C 0.1 °C 989.1 hPa WSW 16.1 km/h 22.5 km/h 93 % 0.25 mm 0 W/m2
22:57 0.9 °C 0.1 °C 989.7 hPa WNW 16.1 km/h 29 km/h 94 % 0 mm 0 W/m2
23:17 0.8 °C -0.1 °C 989.4 hPa West 14.5 km/h 22.5 km/h 94 % 0 mm 0 W/m2
23:37 1.1 °C 0.1 °C 989.4 hPa West 19.3 km/h 37 km/h 93 % 0 mm 0 W/m2
Delerius-Weather
Compliments of Weather Underground - 1.5 mb

Data updates at regular intervals.